sensor_id;sensor_type;location;lat;lon;timestamp;pressure;altitude;pressure_sealevel;temperature;humidity
22000;BME280;11164;48.818;2.322;2022-10-16T00:01:25;100179.41;;;16.69;54.67
22000;BME280;11164;48.818;2.322;2022-10-16T00:03:52;100184.31;;;16.73;54.49
22000;BME280;11164;48.818;2.322;2022-10-16T00:06:18;100187.81;;;16.68;54.28
22000;BME280;11164;48.818;2.322;2022-10-16T00:08:45;100193.06;;;16.58;54.67
22000;BME280;11164;48.818;2.322;2022-10-16T00:11:13;100182.50;;;16.61;54.52
22000;BME280;11164;48.818;2.322;2022-10-16T00:13:40;100185.47;;;16.60;54.67
22000;BME280;11164;48.818;2.322;2022-10-16T00:16:07;100187.56;;;16.53;54.85
22000;BME280;11164;48.818;2.322;2022-10-16T00:18:33;100199.69;;;16.62;54.39
22000;BME280;11164;48.818;2.322;2022-10-16T00:21:14;100209.06;;;16.54;55.06
22000;BME280;11164;48.818;2.322;2022-10-16T00:23:40;100205.47;;;16.65;54.60
22000;BME280;11164;48.818;2.322;2022-10-16T00:26:08;100201.66;;;16.66;54.58
22000;BME280;11164;48.818;2.322;2022-10-16T00:28:35;100198.63;;;16.63;54.76
22000;BME280;11164;48.818;2.322;2022-10-16T00:31:05;100212.00;;;16.64;55.14
22000;BME280;11164;48.818;2.322;2022-10-16T00:33:31;100191.84;;;16.65;54.67
22000;BME280;11164;48.818;2.322;2022-10-16T00:36:01;100214.97;;;16.63;55.07
22000;BME280;11164;48.818;2.322;2022-10-16T00:38:27;100214.59;;;16.59;55.04
22000;BME280;11164;48.818;2.322;2022-10-16T00:40:53;100205.19;;;16.50;54.99
22000;BME280;11164;48.818;2.322;2022-10-16T00:43:44;100218.81;;;16.67;55.39
22000;BME280;11164;48.818;2.322;2022-10-16T00:48:38;100230.69;;;16.61;54.82
22000;BME280;11164;48.818;2.322;2022-10-16T00:51:05;100233.41;;;16.61;55.12
22000;BME280;11164;48.818;2.322;2022-10-16T00:53:32;100224.19;;;16.62;54.89
22000;BME280;11164;48.818;2.322;2022-10-16T00:55:58;100224.84;;;16.69;55.06
22000;BME280;11164;48.818;2.322;2022-10-16T00:58:23;100217.00;;;16.73;54.68
22000;BME280;11164;48.818;2.322;2022-10-16T01:00:48;100231.53;;;16.78;54.62
22000;BME280;11164;48.818;2.322;2022-10-16T01:03:29;100213.28;;;16.79;54.88
22000;BME280;11164;48.818;2.322;2022-10-16T01:09:02;100200.41;;;16.74;55.28
22000;BME280;11164;48.818;2.322;2022-10-16T01:14:14;100224.19;;;16.62;55.62
22000;BME280;11164;48.818;2.322;2022-10-16T01:16:49;100224.59;;;16.71;54.99
22000;BME280;11164;48.818;2.322;2022-10-16T01:22:09;100232.50;;;16.72;54.95
22000;BME280;11164;48.818;2.322;2022-10-16T01:24:39;100239.66;;;16.61;55.04
22000;BME280;11164;48.818;2.322;2022-10-16T01:27:27;100230.47;;;16.62;55.39
22000;BME280;11164;48.818;2.322;2022-10-16T01:30:33;100236.72;;;16.63;55.48
22000;BME280;11164;48.818;2.322;2022-10-16T01:32:57;100244.31;;;16.61;55.47
22000;BME280;11164;48.818;2.322;2022-10-16T01:35:35;100242.59;;;16.72;55.44
22000;BME280;11164;48.818;2.322;2022-10-16T01:38:12;100243.25;;;16.79;54.82
22000;BME280;11164;48.818;2.322;2022-10-16T01:40:45;100237.78;;;16.79;54.68
22000;BME280;11164;48.818;2.322;2022-10-16T01:43:14;100238.03;;;16.77;54.74
22000;BME280;11164;48.818;2.322;2022-10-16T01:45:41;100219.22;;;16.76;54.47
22000;BME280;11164;48.818;2.322;2022-10-16T01:48:12;100222.84;;;16.81;54.85
22000;BME280;11164;48.818;2.322;2022-10-16T01:50:41;100237.78;;;16.79;54.79
22000;BME280;11164;48.818;2.322;2022-10-16T01:53:11;100237.16;;;16.72;54.96
22000;BME280;11164;48.818;2.322;2022-10-16T01:55:42;100235.16;;;16.67;54.98
22000;BME280;11164;48.818;2.322;2022-10-16T01:58:11;100235.66;;;16.64;54.99
22000;BME280;11164;48.818;2.322;2022-10-16T02:00:40;100232.66;;;16.48;55.63
22000;BME280;11164;48.818;2.322;2022-10-16T02:03:07;100236.84;;;16.39;55.88
22000;BME280;11164;48.818;2.322;2022-10-16T02:05:34;100230.84;;;16.37;55.77
22000;BME280;11164;48.818;2.322;2022-10-16T02:08:03;100229.88;;;16.43;55.47
22000;BME280;11164;48.818;2.322;2022-10-16T02:10:29;100231.81;;;16.48;55.47
22000;BME280;11164;48.818;2.322;2022-10-16T02:13:22;100230.94;;;16.59;55.25
22000;BME280;11164;48.818;2.322;2022-10-16T02:15:49;100242.75;;;16.65;55.00
22000;BME280;11164;48.818;2.322;2022-10-16T02:18:14;100238.38;;;16.64;55.13
22000;BME280;11164;48.818;2.322;2022-10-16T02:20:47;100249.25;;;16.64;55.29
22000;BME280;11164;48.818;2.322;2022-10-16T02:23:21;100239.66;;;16.61;55.05
22000;BME280;11164;48.818;2.322;2022-10-16T02:25:50;100240.03;;;16.65;55.03
22000;BME280;11164;48.818;2.322;2022-10-16T02:28:20;100237.78;;;16.62;54.86
22000;BME280;11164;48.818;2.322;2022-10-16T02:30:52;100246.53;;;16.64;55.05
22000;BME280;11164;48.818;2.322;2022-10-16T02:33:21;100249.25;;;16.64;54.86
22000;BME280;11164;48.818;2.322;2022-10-16T02:35:49;100250.19;;;16.69;54.70
22000;BME280;11164;48.818;2.322;2022-10-16T02:38:16;100248.75;;;16.67;54.90
22000;BME280;11164;48.818;2.322;2022-10-16T02:40:42;100238.84;;;16.61;54.61
22000;BME280;11164;48.818;2.322;2022-10-16T02:43:08;100252.25;;;16.62;54.93
22000;BME280;11164;48.818;2.322;2022-10-16T02:45:34;100252.66;;;16.71;54.38
22000;BME280;11164;48.818;2.322;2022-10-16T02:48:00;100251.25;;;16.68;54.72
22000;BME280;11164;48.818;2.322;2022-10-16T02:50:25;100256.13;;;16.66;54.51
22000;BME280;11164;48.818;2.322;2022-10-16T02:52:51;100262.03;;;16.63;54.80
22000;BME280;11164;48.818;2.322;2022-10-16T02:55:16;100265.47;;;16.59;54.42
22000;BME280;11164;48.818;2.322;2022-10-16T02:57:42;100266.19;;;16.66;54.39
22000;BME280;11164;48.818;2.322;2022-10-16T03:00:09;100259.72;;;16.72;54.29
22000;BME280;11164;48.818;2.322;2022-10-16T03:02:37;100270.38;;;16.74;54.28
22000;BME280;11164;48.818;2.322;2022-10-16T03:05:03;100274.16;;;16.73;54.34
22000;BME280;11164;48.818;2.322;2022-10-16T03:07:28;100270.78;;;16.65;54.74
22000;BME280;11164;48.818;2.322;2022-10-16T03:09:54;100270.91;;;16.59;54.47
22000;BME280;11164;48.818;2.322;2022-10-16T03:12:20;100266.56;;;16.58;54.50
22000;BME280;11164;48.818;2.322;2022-10-16T03:14:46;100261.31;;;16.68;54.41
22000;BME280;11164;48.818;2.322;2022-10-16T03:17:11;100275.59;;;16.75;54.17
22000;BME280;11164;48.818;2.322;2022-10-16T03:19:38;100275.50;;;16.70;54.16
22000;BME280;11164;48.818;2.322;2022-10-16T03:22:03;100278.56;;;16.74;53.96
22000;BME280;11164;48.818;2.322;2022-10-16T03:24:29;100275.41;;;16.65;54.43
22000;BME280;11164;48.818;2.322;2022-10-16T03:26:54;100262.75;;;16.59;54.37
22000;BME280;11164;48.818;2.322;2022-10-16T03:29:19;100280.94;;;16.70;54.22
22000;BME280;11164;48.818;2.322;2022-10-16T03:31:44;100268.59;;;16.62;54.21
22000;BME280;11164;48.818;2.322;2022-10-16T03:34:10;100242.31;;;16.56;54.39
22000;BME280;11164;48.818;2.322;2022-10-16T03:36:35;100246.94;;;16.56;54.11
22000;BME280;11164;48.818;2.322;2022-10-16T03:39:00;100234.63;;;16.53;54.10
22000;BME280;11164;48.818;2.322;2022-10-16T03:41:26;100241.81;;;16.59;53.96
22000;BME280;11164;48.818;2.322;2022-10-16T03:43:51;100248.81;;;16.55;54.00
22000;BME280;11164;48.818;2.322;2022-10-16T03:46:16;100247.56;;;16.46;54.23
22000;BME280;11164;48.818;2.322;2022-10-16T03:48:42;100246.91;;;16.39;53.82
22000;BME280;11164;48.818;2.322;2022-10-16T03:51:07;100259.88;;;16.48;53.81
22000;BME280;11164;48.818;2.322;2022-10-16T03:53:32;100264.25;;;16.49;53.83
22000;BME280;11164;48.818;2.322;2022-10-16T03:55:58;100247.25;;;16.42;53.96
22000;BME280;11164;48.818;2.322;2022-10-16T03:58:23;100263.84;;;16.58;53.97
22000;BME280;11164;48.818;2.322;2022-10-16T04:00:49;100265.66;;;16.52;53.92
22000;BME280;11164;48.818;2.322;2022-10-16T04:03:14;100270.34;;;16.40;54.06
22000;BME280;11164;48.818;2.322;2022-10-16T04:05:40;100262.56;;;16.31;54.53
22000;BME280;11164;48.818;2.322;2022-10-16T04:08:05;100255.31;;;16.37;54.15
22000;BME280;11164;48.818;2.322;2022-10-16T04:10:31;100256.38;;;16.36;54.23
22000;BME280;11164;48.818;2.322;2022-10-16T04:12:56;100260.44;;;16.34;54.14
22000;BME280;11164;48.818;2.322;2022-10-16T04:15:22;100262.34;;;16.33;54.38
22000;BME280;11164;48.818;2.322;2022-10-16T04:17:48;100275.94;;;16.33;54.14
22000;BME280;11164;48.818;2.322;2022-10-16T04:20:13;100265.94;;;16.22;54.27
22000;BME280;11164;48.818;2.322;2022-10-16T04:22:39;100254.13;;;16.16;54.27
22000;BME280;11164;48.818;2.322;2022-10-16T04:25:04;100267.59;;;16.23;54.37
22000;BME280;11164;48.818;2.322;2022-10-16T04:27:30;100272.97;;;16.35;54.06
22000;BME280;11164;48.818;2.322;2022-10-16T04:29:57;100281.97;;;16.35;54.10
22000;BME280;11164;48.818;2.322;2022-10-16T04:32:22;100289.03;;;16.36;54.04
22000;BME280;11164;48.818;2.322;2022-10-16T04:34:48;100282.91;;;16.29;54.12
22000;BME280;11164;48.818;2.322;2022-10-16T04:37:13;100290.59;;;16.32;54.05
22000;BME280;11164;48.818;2.322;2022-10-16T04:39:38;100315.91;;;16.32;54.29
22000;BME280;11164;48.818;2.322;2022-10-16T04:42:03;100313.69;;;16.29;54.15
22000;BME280;11164;48.818;2.322;2022-10-16T04:44:29;100309.66;;;16.32;54.04
22000;BME280;11164;48.818;2.322;2022-10-16T04:46:54;100297.19;;;16.36;53.89
22000;BME280;11164;48.818;2.322;2022-10-16T04:49:20;100306.78;;;16.39;53.98
22000;BME280;11164;48.818;2.322;2022-10-16T04:51:45;100318.03;;;16.30;54.33
22000;BME280;11164;48.818;2.322;2022-10-16T04:54:11;100318.16;;;16.36;54.19
22000;BME280;11164;48.818;2.322;2022-10-16T04:56:36;100323.91;;;16.39;54.14
22000;BME280;11164;48.818;2.322;2022-10-16T04:59:08;100317.63;;;16.22;54.01
22000;BME280;11164;48.818;2.322;2022-10-16T05:01:34;100345.25;;;16.30;54.32
22000;BME280;11164;48.818;2.322;2022-10-16T05:03:59;100350.03;;;16.23;54.44
22000;BME280;11164;48.818;2.322;2022-10-16T05:06:25;100360.03;;;16.35;54.53
22000;BME280;11164;48.818;2.322;2022-10-16T05:08:51;100345.59;;;16.34;53.87
22000;BME280;11164;48.818;2.322;2022-10-16T05:11:17;100346.59;;;16.45;53.79
22000;BME280;11164;48.818;2.322;2022-10-16T05:13:42;100351.66;;;16.53;53.71
22000;BME280;11164;48.818;2.322;2022-10-16T05:16:07;100336.66;;;16.50;53.61
22000;BME280;11164;48.818;2.322;2022-10-16T05:18:33;100352.31;;;16.60;53.42
22000;BME280;11164;48.818;2.322;2022-10-16T05:20:58;100355.63;;;16.45;53.67
22000;BME280;11164;48.818;2.322;2022-10-16T05:23:23;100362.59;;;16.41;54.03
22000;BME280;11164;48.818;2.322;2022-10-16T05:25:55;100370.19;;;16.39;54.19
22000;BME280;11164;48.818;2.322;2022-10-16T05:28:24;100372.09;;;16.39;53.80
22000;BME280;11164;48.818;2.322;2022-10-16T05:30:50;100378.91;;;16.41;53.98
22000;BME280;11164;48.818;2.322;2022-10-16T05:33:15;100374.66;;;16.45;53.70
22000;BME280;11164;48.818;2.322;2022-10-16T05:35:41;100368.38;;;16.45;54.05
22000;BME280;11164;48.818;2.322;2022-10-16T05:38:06;100372.38;;;16.54;53.57
22000;BME280;11164;48.818;2.322;2022-10-16T05:40:31;100371.03;;;16.57;53.91
22000;BME280;11164;48.818;2.322;2022-10-16T05:42:57;100369.16;;;16.57;53.74
22000;BME280;11164;48.818;2.322;2022-10-16T05:45:22;100361.47;;;16.54;53.94
22000;BME280;11164;48.818;2.322;2022-10-16T05:47:48;100368.84;;;16.54;53.85
22000;BME280;11164;48.818;2.322;2022-10-16T05:50:13;100383.63;;;16.46;53.93
22000;BME280;11164;48.818;2.322;2022-10-16T05:52:38;100373.97;;;16.38;54.08
22000;BME280;11164;48.818;2.322;2022-10-16T05:55:04;100365.97;;;16.31;54.41
22000;BME280;11164;48.818;2.322;2022-10-16T05:57:29;100361.72;;;16.24;54.61
22000;BME280;11164;48.818;2.322;2022-10-16T05:59:55;100375.81;;;16.21;54.41
22000;BME280;11164;48.818;2.322;2022-10-16T06:02:20;100373.00;;;16.16;54.51
22000;BME280;11164;48.818;2.322;2022-10-16T06:04:46;100369.66;;;16.13;54.63
22000;BME280;11164;48.818;2.322;2022-10-16T06:07:11;100375.81;;;16.21;54.47
22000;BME280;11164;48.818;2.322;2022-10-16T06:09:37;100372.13;;;16.27;54.33
22000;BME280;11164;48.818;2.322;2022-10-16T06:12:02;100377.47;;;16.22;54.33
22000;BME280;11164;48.818;2.322;2022-10-16T06:14:27;100370.22;;;16.27;53.96
22000;BME280;11164;48.818;2.322;2022-10-16T06:16:53;100364.44;;;16.24;54.09
22000;BME280;11164;48.818;2.322;2022-10-16T06:19:18;100372.59;;;16.24;54.21
22000;BME280;11164;48.818;2.322;2022-10-16T06:21:44;100345.34;;;16.07;54.18
22000;BME280;11164;48.818;2.322;2022-10-16T06:24:09;100371.44;;;16.20;54.33
22000;BME280;11164;48.818;2.322;2022-10-16T06:26:35;100376.66;;;16.09;54.41
22000;BME280;11164;48.818;2.322;2022-10-16T06:29:00;100365.22;;;16.07;54.59
22000;BME280;11164;48.818;2.322;2022-10-16T06:31:26;100370.97;;;16.23;54.46
22000;BME280;11164;48.818;2.322;2022-10-16T06:33:54;100372.81;;;16.34;54.00
22000;BME280;11164;48.818;2.322;2022-10-16T06:36:20;100368.91;;;16.30;54.46
22000;BME280;11164;48.818;2.322;2022-10-16T06:38:46;100370.66;;;16.36;54.16
22000;BME280;11164;48.818;2.322;2022-10-16T06:41:14;100369.03;;;16.35;54.04
22000;BME280;11164;48.818;2.322;2022-10-16T06:43:40;100378.00;;;16.36;54.16
22000;BME280;11164;48.818;2.322;2022-10-16T06:46:08;100379.19;;;16.40;53.81
22000;BME280;11164;48.818;2.322;2022-10-16T06:48:35;100384.03;;;16.38;54.03
22000;BME280;11164;48.818;2.322;2022-10-16T06:51:04;100386.75;;;16.38;53.84
22000;BME280;11164;48.818;2.322;2022-10-16T06:53:33;100392.78;;;16.40;53.96
22000;BME280;11164;48.818;2.322;2022-10-16T06:56:10;100398.31;;;16.45;53.99
22000;BME280;11164;48.818;2.322;2022-10-16T06:58:37;100403.84;;;16.62;53.75
22000;BME280;11164;48.818;2.322;2022-10-16T07:01:03;100414.91;;;16.72;53.21
22000;BME280;11164;48.818;2.322;2022-10-16T07:03:29;100423.78;;;16.96;53.10
22000;BME280;11164;48.818;2.322;2022-10-16T07:05:54;100419.06;;;16.92;53.41
22000;BME280;11164;48.818;2.322;2022-10-16T07:08:20;100419.06;;;16.92;53.44
22000;BME280;11164;48.818;2.322;2022-10-16T07:10:46;100423.88;;;17.01;53.32
22000;BME280;11164;48.818;2.322;2022-10-16T07:13:11;100430.22;;;17.07;53.32
22000;BME280;11164;48.818;2.322;2022-10-16T07:15:40;100442.22;;;17.06;53.77
22000;BME280;11164;48.818;2.322;2022-10-16T07:18:06;100432.66;;;17.20;53.42
22000;BME280;11164;48.818;2.322;2022-10-16T07:20:31;100423.13;;;17.23;53.44
22000;BME280;11164;48.818;2.322;2022-10-16T07:22:57;100428.75;;;17.33;53.63
22000;BME280;11164;48.818;2.322;2022-10-16T07:25:22;100439.91;;;17.32;53.54
22000;BME280;11164;48.818;2.322;2022-10-16T07:27:47;100434.22;;;17.33;53.71
22000;BME280;11164;48.818;2.322;2022-10-16T07:30:13;100412.31;;;17.28;53.22
22000;BME280;11164;48.818;2.322;2022-10-16T07:32:38;100443.31;;;17.39;53.77
22000;BME280;11164;48.818;2.322;2022-10-16T07:35:04;100443.88;;;17.24;53.69
22000;BME280;11164;48.818;2.322;2022-10-16T07:37:30;100454.28;;;17.27;53.82
22000;BME280;11164;48.818;2.322;2022-10-16T07:39:55;100449.81;;;17.21;53.82
22000;BME280;11164;48.818;2.322;2022-10-16T07:42:21;100473.13;;;17.29;53.59
22000;BME280;11164;48.818;2.322;2022-10-16T07:44:46;100462.72;;;17.42;53.59
22000;BME280;11164;48.818;2.322;2022-10-16T07:47:11;100481.63;;;17.66;53.15
22000;BME280;11164;48.818;2.322;2022-10-16T07:49:37;100481.06;;;17.81;52.79
22000;BME280;11164;48.818;2.322;2022-10-16T07:52:02;100481.69;;;18.05;52.82
22000;BME280;11164;48.818;2.322;2022-10-16T07:54:27;100472.16;;;18.08;52.53
22000;BME280;11164;48.818;2.322;2022-10-16T07:56:53;100465.13;;;18.12;52.87
22000;BME280;11164;48.818;2.322;2022-10-16T07:59:18;100471.97;;;18.31;52.70
22000;BME280;11164;48.818;2.322;2022-10-16T08:01:43;100474.13;;;18.12;53.12
22000;BME280;11164;48.818;2.322;2022-10-16T08:04:10;100487.97;;;18.06;53.57
22000;BME280;11164;48.818;2.322;2022-10-16T08:06:37;100496.13;;;18.06;53.62
22000;BME280;11164;48.818;2.322;2022-10-16T08:09:04;100497.34;;;17.93;53.82
22000;BME280;11164;48.818;2.322;2022-10-16T08:11:29;100499.03;;;17.99;53.49
22000;BME280;11164;48.818;2.322;2022-10-16T08:13:55;100487.59;;;18.19;53.46
22000;BME280;11164;48.818;2.322;2022-10-16T08:16:20;100501.56;;;18.40;52.90
22000;BME280;11164;48.818;2.322;2022-10-16T08:18:46;100493.53;;;18.55;52.67
22000;BME280;11164;48.818;2.322;2022-10-16T08:21:15;100495.38;;;18.49;52.77
22000;BME280;11164;48.818;2.322;2022-10-16T08:23:42;100490.75;;;18.50;52.76
22000;BME280;11164;48.818;2.322;2022-10-16T08:26:09;100501.03;;;18.43;53.50
22000;BME280;11164;48.818;2.322;2022-10-16T08:28:35;100494.88;;;18.52;53.02
22000;BME280;11164;48.818;2.322;2022-10-16T08:31:07;100501.34;;;18.46;52.87
22000;BME280;11164;48.818;2.322;2022-10-16T08:33:32;100504.59;;;18.43;53.19
22000;BME280;11164;48.818;2.322;2022-10-16T08:36:00;100497.47;;;18.64;52.70
22000;BME280;11164;48.818;2.322;2022-10-16T08:38:25;100505.66;;;18.64;52.55
22000;BME280;11164;48.818;2.322;2022-10-16T08:40:51;100465.22;;;18.39;52.83
22000;BME280;11164;48.818;2.322;2022-10-16T08:50:52;100503.47;;;18.22;52.85
22000;BME280;11164;48.818;2.322;2022-10-16T08:53:26;100508.75;;;18.29;52.60
22000;BME280;11164;48.818;2.322;2022-10-16T08:55:54;100511.19;;;18.47;52.36
22000;BME280;11164;48.818;2.322;2022-10-16T08:58:21;100502.81;;;18.54;52.13
22000;BME280;11164;48.818;2.322;2022-10-16T09:00:50;100509.69;;;18.34;52.34
22000;BME280;11164;48.818;2.322;2022-10-16T09:03:28;100507.59;;;18.42;52.07
22000;BME280;11164;48.818;2.322;2022-10-16T09:14:23;100535.03;;;19.01;51.00
22000;BME280;11164;48.818;2.322;2022-10-16T09:17:29;100516.00;;;19.06;50.90
22000;BME280;11164;48.818;2.322;2022-10-16T09:22:39;100514.97;;;19.12;50.87
22000;BME280;11164;48.818;2.322;2022-10-16T09:25:12;100504.03;;;19.12;50.62
22000;BME280;11164;48.818;2.322;2022-10-16T09:27:38;100511.84;;;19.31;50.60
22000;BME280;11164;48.818;2.322;2022-10-16T09:30:12;100514.88;;;19.35;50.50
22000;BME280;11164;48.818;2.322;2022-10-16T09:32:38;100513.91;;;19.46;46.76
22000;BME280;11164;48.818;2.322;2022-10-16T09:35:13;100521.41;;;19.28;50.70
22000;BME280;11164;48.818;2.322;2022-10-16T09:37:40;100521.44;;;19.66;50.38
22000;BME280;11164;48.818;2.322;2022-10-16T09:40:13;100519.78;;;19.97;48.87
22000;BME280;11164;48.818;2.322;2022-10-16T09:42:39;100529.91;;;19.97;49.94
22000;BME280;11164;48.818;2.322;2022-10-16T09:45:05;100536.94;;;19.82;50.22
22000;BME280;11164;48.818;2.322;2022-10-16T09:47:37;100541.03;;;19.85;49.71
22000;BME280;11164;48.818;2.322;2022-10-16T09:50:24;100528.03;;;20.02;48.91
22000;BME280;11164;48.818;2.322;2022-10-16T09:52:51;100526.41;;;20.01;50.07
22000;BME280;11164;48.818;2.322;2022-10-16T09:55:27;100528.72;;;19.82;50.54
22000;BME280;11164;48.818;2.322;2022-10-16T09:57:54;100517.97;;;20.08;49.91
22000;BME280;11164;48.818;2.322;2022-10-16T10:00:22;100512.81;;;20.17;49.54
22000;BME280;11164;48.818;2.322;2022-10-16T10:02:48;100503.16;;;20.09;49.65
22000;BME280;11164;48.818;2.322;2022-10-16T10:05:25;100498.22;;;20.01;49.39
22000;BME280;11164;48.818;2.322;2022-10-16T10:07:55;100493.38;;;20.18;49.12
22000;BME280;11164;48.818;2.322;2022-10-16T10:10:27;100499.53;;;20.41;48.66
22000;BME280;11164;48.818;2.322;2022-10-16T10:12:54;100503.34;;;20.45;48.60
22000;BME280;11164;48.818;2.322;2022-10-16T10:15:21;100489.75;;;20.60;48.15
22000;BME280;11164;48.818;2.322;2022-10-16T10:17:51;100487.63;;;20.83;47.65
22000;BME280;11164;48.818;2.322;2022-10-16T10:23:13;100479.47;;;21.65;46.37
22000;BME280;11164;48.818;2.322;2022-10-16T10:28:24;100491.00;;;21.21;46.46
22000;BME280;11164;48.818;2.322;2022-10-16T10:39:06;100494.25;;;21.03;46.77
22000;BME280;11164;48.818;2.322;2022-10-16T10:41:56;100488.44;;;20.84;44.68
22000;BME280;11164;48.818;2.322;2022-10-16T10:52:53;100508.81;;;20.40;47.43
22000;BME280;11164;48.818;2.322;2022-10-16T11:01:10;100497.34;;;20.43;45.59
22000;BME280;11164;48.818;2.322;2022-10-16T11:12:09;100484.28;;;20.66;47.54
22000;BME280;11164;48.818;2.322;2022-10-16T11:14:40;100481.06;;;20.89;46.62
22000;BME280;11164;48.818;2.322;2022-10-16T11:17:31;100473.88;;;20.62;46.78
22000;BME280;11164;48.818;2.322;2022-10-16T11:20:31;100471.47;;;20.92;44.79
22000;BME280;11164;48.818;2.322;2022-10-16T11:25:32;100471.25;;;21.19;46.51
22000;BME280;11164;48.818;2.322;2022-10-16T11:31:17;100464.91;;;20.98;44.72
22000;BME280;11164;48.818;2.322;2022-10-16T11:33:54;100462.69;;;20.85;46.65
22000;BME280;11164;48.818;2.322;2022-10-16T11:41:27;100458.34;;;21.14;46.44
22000;BME280;11164;48.818;2.322;2022-10-16T11:44:20;100452.06;;;21.55;45.05
22000;BME280;11164;48.818;2.322;2022-10-16T11:49:53;100451.72;;;21.92;45.53
22000;BME280;11164;48.818;2.322;2022-10-16T11:52:33;100440.47;;;22.09;44.10
22000;BME280;11164;48.818;2.322;2022-10-16T11:57:38;100425.72;;;21.64;46.11
22000;BME280;11164;48.818;2.322;2022-10-16T12:00:40;100425.75;;;21.54;43.43
22000;BME280;11164;48.818;2.322;2022-10-16T12:04:12;100423.25;;;21.58;44.80
22000;BME280;11164;48.818;2.322;2022-10-16T12:08:59;100406.94;;;22.07;44.98
22000;BME280;11164;48.818;2.322;2022-10-16T12:14:05;100407.59;;;21.63;44.68
22000;BME280;11164;48.818;2.322;2022-10-16T12:16:31;100401.88;;;21.49;46.02
22000;BME280;11164;48.818;2.322;2022-10-16T12:19:12;100410.66;;;21.31;44.55
22000;BME280;11164;48.818;2.322;2022-10-16T12:21:38;100417.81;;;21.32;46.16
22000;BME280;11164;48.818;2.322;2022-10-16T12:24:03;100415.34;;;21.25;46.35
22000;BME280;11164;48.818;2.322;2022-10-16T12:26:32;100410.94;;;21.19;46.21
22000;BME280;11164;48.818;2.322;2022-10-16T12:29:18;100414.75;;;21.13;45.87
22000;BME280;11164;48.818;2.322;2022-10-16T12:31:48;100416.41;;;21.09;46.70
22000;BME280;11164;48.818;2.322;2022-10-16T12:37:09;100412.03;;;21.39;45.43
22000;BME280;11164;48.818;2.322;2022-10-16T12:39:36;100410.38;;;21.48;45.83
22000;BME280;11164;48.818;2.322;2022-10-16T12:44:53;100410.88;;;21.75;45.47
22000;BME280;11164;48.818;2.322;2022-10-16T12:47:47;100398.19;;;22.00;43.74
22000;BME280;11164;48.818;2.322;2022-10-16T12:50:37;100384.53;;;21.74;44.72
22000;BME280;11164;48.818;2.322;2022-10-16T12:53:24;100393.84;;;21.79;43.73
22000;BME280;11164;48.818;2.322;2022-10-16T12:56:19;100383.72;;;21.64;44.63
22000;BME280;11164;48.818;2.322;2022-10-16T12:59:09;100383.44;;;21.75;45.22
22000;BME280;11164;48.818;2.322;2022-10-16T13:05:05;100378.38;;;22.14;43.59
22000;BME280;11164;48.818;2.322;2022-10-16T13:10:19;100379.97;;;23.09;42.61
22000;BME280;11164;48.818;2.322;2022-10-16T13:13:31;100382.44;;;23.69;40.41
22000;BME280;11164;48.818;2.322;2022-10-16T13:18:57;100376.41;;;24.34;39.69
22000;BME280;11164;48.818;2.322;2022-10-16T13:24:28;100374.59;;;24.06;43.25
22000;BME280;11164;48.818;2.322;2022-10-16T13:27:14;100361.41;;;24.65;40.25
22000;BME280;11164;48.818;2.322;2022-10-16T13:29:43;100352.91;;;24.42;43.15
22000;BME280;11164;48.818;2.322;2022-10-16T13:32:10;100356.31;;;24.53;43.20
22000;BME280;11164;48.818;2.322;2022-10-16T13:34:45;100355.97;;;24.60;41.18
22000;BME280;11164;48.818;2.322;2022-10-16T13:37:21;100361.59;;;24.49;40.78
22000;BME280;11164;48.818;2.322;2022-10-16T13:39:47;100355.56;;;24.28;43.02
22000;BME280;11164;48.818;2.322;2022-10-16T13:42:24;100351.59;;;24.34;42.73
22000;BME280;11164;48.818;2.322;2022-10-16T13:44:53;100349.47;;;24.12;43.30
22000;BME280;11164;48.818;2.322;2022-10-16T13:47:24;100352.56;;;23.57;44.00
22000;BME280;11164;48.818;2.322;2022-10-16T13:52:26;100356.59;;;23.89;43.38
22000;BME280;11164;48.818;2.322;2022-10-16T13:54:51;100353.81;;;23.41;44.20
22000;BME280;11164;48.818;2.322;2022-10-16T13:57:22;100360.56;;;23.30;44.34
22000;BME280;11164;48.818;2.322;2022-10-16T13:59:48;100355.34;;;22.94;44.72
22000;BME280;11164;48.818;2.322;2022-10-16T14:02:33;100346.63;;;22.86;43.51
22000;BME280;11164;48.818;2.322;2022-10-16T14:05:01;100354.56;;;22.88;44.41
22000;BME280;11164;48.818;2.322;2022-10-16T14:07:31;100356.59;;;23.12;44.12
22000;BME280;11164;48.818;2.322;2022-10-16T14:10:04;100358.50;;;23.11;43.85
22000;BME280;11164;48.818;2.322;2022-10-16T14:12:30;100357.16;;;23.09;42.44
22000;BME280;11164;48.818;2.322;2022-10-16T14:14:57;100359.22;;;22.93;44.50
22000;BME280;11164;48.818;2.322;2022-10-16T14:17:30;100361.50;;;22.80;44.06
22000;BME280;11164;48.818;2.322;2022-10-16T14:19:58;100358.81;;;22.75;44.34
22000;BME280;11164;48.818;2.322;2022-10-16T14:22:36;100360.34;;;22.86;44.26
22000;BME280;11164;48.818;2.322;2022-10-16T14:25:19;100364.38;;;22.99;43.57
22000;BME280;11164;48.818;2.322;2022-10-16T14:28:15;100361.09;;;23.27;43.10
22000;BME280;11164;48.818;2.322;2022-10-16T14:38:24;100352.44;;;22.80;44.59
22000;BME280;11164;48.818;2.322;2022-10-16T14:40:50;100348.78;;;22.90;44.64
22000;BME280;11164;48.818;2.322;2022-10-16T14:43:22;100350.97;;;22.93;43.95
22000;BME280;11164;48.818;2.322;2022-10-16T14:45:55;100356.91;;;22.71;44.91
22000;BME280;11164;48.818;2.322;2022-10-16T14:48:22;100364.38;;;22.65;45.12
22000;BME280;11164;48.818;2.322;2022-10-16T14:50:47;100360.06;;;22.48;45.12
22000;BME280;11164;48.818;2.322;2022-10-16T14:53:13;100364.50;;;22.39;45.36
22000;BME280;11164;48.818;2.322;2022-10-16T14:55:40;100365.94;;;22.26;45.27
22000;BME280;11164;48.818;2.322;2022-10-16T14:58:08;100365.94;;;22.26;45.70